Time;durP1;ratioP1;P1;durP2;ratioP2;P2;SDS_P1;SDS_P2;PMS_P1;PMS_P2;Temp;Humidity;BMP_temperature;BMP_pressure;BME280_temperature;BME280_humidity;BME280_pressure;Samples;Min_cycle;Max_cycle;Signal;HPM_P1;HPM_P2
2024/01/16 00:02:11;;;;;;;6.53;3.63;;;;;;;;;;4873968;29;20532;-88
2024/01/16 00:05:17;;;;;;;4.67;3.07;;;;;;;;;;4863085;29;20630;-88
2024/01/16 00:08:22;;;;;;;4.73;3.30;;;;;;;;;;4885693;29;20552;-88
2024/01/16 00:11:30;;;;;;;6.77;3.20;;;;;;;;;;4873247;29;20882;-88
2024/01/16 00:14:36;;;;;;;6.60;3.10;;;;;;;;;;4851965;29;20982;-88
2024/01/16 00:17:40;;;;;;;4.67;2.97;;;;;;;;;;4884605;29;21105;-87
2024/01/16 00:20:53;;;;;;;10.03;3.60;;;;;;;;;;4872968;29;20599;-88
2024/01/16 00:24:00;;;;;;;6.03;3.33;;;;;;;;;;4862279;29;20553;-88
2024/01/16 00:27:05;;;;;;;4.00;3.10;;;;;;;;;;4873250;29;20891;-87
2024/01/16 00:30:10;;;;;;;4.17;2.80;;;;;;;;;;4873216;29;20538;-88
2024/01/16 00:33:16;;;;;;;5.37;3.17;;;;;;;;;;4862566;29;21108;-88
2024/01/16 00:36:20;;;;;;;5.43;3.33;;;;;;;;;;4862579;29;20559;-88
2024/01/16 00:39:24;;;;;;;7.20;3.50;;;;;;;;;;4872735;29;20559;-88
2024/01/16 00:42:32;;;;;;;6.03;3.37;;;;;;;;;;4872749;29;20527;-88
2024/01/16 00:45:40;;;;;;;7.13;3.13;;;;;;;;;;4862217;29;20626;-87
2024/01/16 00:48:44;;;;;;;5.17;3.17;;;;;;;;;;4884434;29;20543;-87
2024/01/16 00:51:48;;;;;;;4.33;2.63;;;;;;;;;;4862461;29;20547;-88
2024/01/16 00:54:52;;;;;;;4.93;2.93;;;;;;;;;;4872192;29;20626;-88
2024/01/16 00:57:58;;;;;;;4.30;2.80;;;;;;;;;;4872864;29;20547;-89
2024/01/16 01:01:02;;;;;;;4.07;2.80;;;;;;;;;;4872009;29;20938;-88
2024/01/16 01:04:06;;;;;;;6.83;3.43;;;;;;;;;;4872294;29;20559;-87
2024/01/16 01:07:14;;;;;;;3.47;2.63;;;;;;;;;;4872374;29;20547;-89
2024/01/16 01:10:25;;;;;;;4.77;2.63;;;;;;;;;;4873606;29;20539;-87
2024/01/16 01:13:29;;;;;;;5.10;2.50;;;;;;;;;;4883404;29;20551;-88
2024/01/16 01:16:33;;;;;;;7.57;2.70;;;;;;;;;;4883284;29;20567;-88
2024/01/16 01:19:38;;;;;;;6.10;2.93;;;;;;;;;;4861797;29;20544;-88
2024/01/16 01:22:44;;;;;;;3.87;2.87;;;;;;;;;;4871916;29;20543;-88
2024/01/16 01:25:51;;;;;;;7.47;2.50;;;;;;;;;;4882282;29;21227;-88
2024/01/16 01:28:55;;;;;;;4.20;2.97;;;;;;;;;;4882458;29;20544;-88
2024/01/16 01:31:59;;;;;;;5.53;3.00;;;;;;;;;;4861288;29;20547;-88
2024/01/16 01:35:05;;;;;;;4.13;2.53;;;;;;;;;;4871600;29;20626;-88
2024/01/16 01:38:18;;;;;;;3.90;2.50;;;;;;;;;;4850349;29;20556;-88
2024/01/16 01:41:22;;;;;;;5.47;3.13;;;;;;;;;;4872075;29;20599;-88
2024/01/16 01:44:28;;;;;;;6.30;2.90;;;;;;;;;;4882683;29;20638;-88
2024/01/16 01:47:32;;;;;;;4.70;2.93;;;;;;;;;;4871510;29;20544;-88
2024/01/16 01:50:37;;;;;;;3.73;2.70;;;;;;;;;;4860954;29;20552;-88
2024/01/16 01:53:43;;;;;;;6.13;3.10;;;;;;;;;;4871348;29;20551;-88
2024/01/16 01:56:48;;;;;;;4.17;2.60;;;;;;;;;;4881782;29;20547;-88
2024/01/16 01:59:54;;;;;;;3.70;2.57;;;;;;;;;;4871121;29;21085;-88
2024/01/16 02:03:05;;;;;;;5.50;2.87;;;;;;;;;;4860629;29;20548;-88
2024/01/16 02:06:11;;;;;;;4.10;2.50;;;;;;;;;;4870952;29;20622;-88
2024/01/16 02:09:20;;;;;;;3.93;2.90;;;;;;;;;;4881580;29;20551;-88
2024/01/16 02:12:24;;;;;;;5.27;2.60;;;;;;;;;;4881439;29;20547;-88
2024/01/16 02:15:28;;;;;;;3.77;2.53;;;;;;;;;;4870635;29;20626;-88
2024/01/16 02:18:33;;;;;;;4.40;2.67;;;;;;;;;;4870510;29;20548;-88
2024/01/16 02:21:50;;;;;;;5.80;2.57;;;;;;;;;;4861124;29;20599;-88
2024/01/16 02:25:12;;;;;;;5.23;2.50;;;;;;;;;;4870151;29;20657;-88
2024/01/16 02:28:17;;;;;;;3.83;2.40;;;;;;;;;;4870611;29;20548;-88
2024/01/16 02:31:22;;;;;;;5.77;2.60;;;;;;;;;;4871175;29;20887;-88
2024/01/16 02:34:26;;;;;;;3.93;2.50;;;;;;;;;;4870326;29;20630;-88
2024/01/16 02:37:31;;;;;;;3.57;2.20;;;;;;;;;;4870294;29;20551;-88
2024/01/16 02:40:35;;;;;;;5.43;2.23;;;;;;;;;;4870340;29;20595;-88
2024/01/16 02:43:39;;;;;;;4.47;2.77;;;;;;;;;;4859696;29;20551;-87
2024/01/16 02:46:43;;;;;;;4.30;2.60;;;;;;;;;;4849189;29;21124;-87
2024/01/16 02:49:53;;;;;;;4.50;2.50;;;;;;;;;;4859655;29;20547;-88
2024/01/16 02:52:58;;;;;;;4.57;2.67;;;;;;;;;;4859097;29;20539;-88
2024/01/16 02:56:02;;;;;;;5.73;2.30;;;;;;;;;;4881065;29;20634;-88
2024/01/16 02:59:07;;;;;;;3.10;2.30;;;;;;;;;;4849160;29;20556;-88
2024/01/16 03:02:11;;;;;;;4.63;2.47;;;;;;;;;;4869922;29;20934;-88
2024/01/16 03:05:15;;;;;;;4.00;2.50;;;;;;;;;;4869635;29;20630;-88
2024/01/16 03:08:22;;;;;;;3.83;2.20;;;;;;;;;;4870002;29;20547;-88
2024/01/16 03:11:26;;;;;;;6.90;2.80;;;;;;;;;;4860118;29;20539;-88
2024/01/16 03:14:33;;;;;;;4.80;2.30;;;;;;;;;;4869728;29;20627;-88
2024/01/16 03:17:41;;;;;;;5.93;2.80;;;;;;;;;;4859497;29;20555;-88
2024/01/16 03:20:46;;;;;;;4.23;2.73;;;;;;;;;;4859226;29;20599;-88
2024/01/16 03:23:50;;;;;;;3.33;2.30;;;;;;;;;;4869739;29;20551;-87
2024/01/16 03:26:54;;;;;;;2.50;2.20;;;;;;;;;;4870077;29;21089;-88
2024/01/16 03:29:59;;;;;;;4.20;2.43;;;;;;;;;;4859078;29;20566;-88
2024/01/16 03:33:04;;;;;;;3.27;2.17;;;;;;;;;;4881716;29;20546;-88
2024/01/16 03:36:09;;;;;;;4.67;2.30;;;;;;;;;;4858950;29;20614;-88
2024/01/16 03:39:14;;;;;;;3.93;2.10;;;;;;;;;;4869996;29;20551;-88
2024/01/16 03:42:18;;;;;;;4.47;2.40;;;;;;;;;;4870026;29;20598;-88
2024/01/16 03:45:28;;;;;;;4.53;2.33;;;;;;;;;;4869623;29;20630;-88
2024/01/16 03:48:32;;;;;;;2.87;2.13;;;;;;;;;;4869730;29;20544;-88
2024/01/16 03:51:37;;;;;;;5.07;2.73;;;;;;;;;;4869484;29;20547;-88
2024/01/16 03:54:41;;;;;;;3.67;2.27;;;;;;;;;;4869600;29;20622;-88
2024/01/16 03:57:45;;;;;;;2.73;2.17;;;;;;;;;;4869334;29;21104;-87
2024/01/16 04:00:51;;;;;;;4.10;2.23;;;;;;;;;;4869218;29;20615;-88
2024/01/16 04:03:55;;;;;;;3.00;2.43;;;;;;;;;;4871328;29;20551;-88
2024/01/16 04:06:59;;;;;;;3.33;2.27;;;;;;;;;;4862487;29;20551;-87
2024/01/16 04:10:05;;;;;;;3.67;2.27;;;;;;;;;;4873370;29;21088;-88
2024/01/16 04:13:22;;;;;;;3.77;2.40;;;;;;;;;;4874337;29;20547;-87
2024/01/16 04:16:26;;;;;;;4.60;2.67;;;;;;;;;;4886104;29;20551;-88
2024/01/16 04:19:33;;;;;;;4.37;2.60;;;;;;;;;;4863382;29;21096;-88
2024/01/16 04:22:38;;;;;;;4.27;2.60;;;;;;;;;;4873722;29;20618;-86
2024/01/16 04:25:42;;;;;;;3.73;2.70;;;;;;;;;;4872500;29;20650;-89
2024/01/16 04:28:46;;;;;;;2.47;2.17;;;;;;;;;;4873410;29;20547;-89
2024/01/16 04:31:51;;;;;;;3.50;2.23;;;;;;;;;;4873138;29;21080;-88
2024/01/16 04:34:57;;;;;;;4.40;2.47;;;;;;;;;;4873156;29;20630;-89
2024/01/16 04:38:03;;;;;;;4.73;2.53;;;;;;;;;;4861728;29;20559;-89
2024/01/16 04:41:07;;;;;;;4.67;3.00;;;;;;;;;;4884466;29;20603;-89
2024/01/16 04:44:12;;;;;;;4.27;2.70;;;;;;;;;;4862442;29;21084;-88
2024/01/16 04:47:16;;;;;;;5.67;2.60;;;;;;;;;;4873153;29;20551;-89
2024/01/16 04:50:21;;;;;;;6.27;2.37;;;;;;;;;;4873007;29;20551;-89
2024/01/16 04:53:25;;;;;;;9.70;2.97;;;;;;;;;;4862444;29;20547;-88
2024/01/16 04:56:31;;;;;;;3.93;2.50;;;;;;;;;;4872654;29;20547;-88
2024/01/16 04:59:36;;;;;;;7.10;2.90;;;;;;;;;;4872022;29;20564;-88
2024/01/16 05:02:40;;;;;;;3.90;2.23;;;;;;;;;;4871803;29;20590;-89
2024/01/16 05:05:44;;;;;;;5.00;2.30;;;;;;;;;;4861915;29;20970;-88
2024/01/16 05:08:48;;;;;;;4.03;2.70;;;;;;;;;;4871841;29;20563;-88
2024/01/16 05:11:52;;;;;;;3.47;2.37;;;;;;;;;;4861383;29;20540;-88
2024/01/16 05:14:56;;;;;;;3.43;2.50;;;;;;;;;;4881483;29;20622;-88
2024/01/16 05:18:00;;;;;;;6.43;2.90;;;;;;;;;;4861051;29;20547;-88
2024/01/16 05:21:06;;;;;;;3.20;2.43;;;;;;;;;;4871516;29;21097;-89
2024/01/16 05:24:11;;;;;;;5.30;2.63;;;;;;;;;;4871826;29;20547;-89
2024/01/16 05:27:16;;;;;;;4.13;2.70;;;;;;;;;;4871798;29;20547;-88
2024/01/16 05:30:20;;;;;;;4.03;2.63;;;;;;;;;;4871599;29;21081;-88
2024/01/16 05:33:26;;;;;;;4.00;2.13;;;;;;;;;;4882070;29;20535;-89
2024/01/16 05:36:31;;;;;;;3.03;2.67;;;;;;;;;;4871649;29;20567;-88
2024/01/16 05:39:36;;;;;;;4.63;2.80;;;;;;;;;;4871238;29;20547;-89
2024/01/16 05:42:40;;;;;;;5.13;2.53;;;;;;;;;;4871571;29;20595;-89
2024/01/16 05:45:44;;;;;;;6.27;2.70;;;;;;;;;;4870776;29;20634;-88
2024/01/16 05:48:50;;;;;;;4.67;2.60;;;;;;;;;;4870846;29;21097;-88
2024/01/16 05:51:54;;;;;;;4.17;2.60;;;;;;;;;;4870784;29;20535;-88
2024/01/16 05:55:00;;;;;;;3.63;2.40;;;;;;;;;;4881652;29;20622;-89
2024/01/16 05:58:04;;;;;;;4.27;2.30;;;;;;;;;;4870960;29;20547;-89
2024/01/16 06:01:09;;;;;;;5.00;2.57;;;;;;;;;;4870537;29;20539;-89
2024/01/16 06:04:15;;;;;;;5.73;2.80;;;;;;;;;;4870399;29;20556;-89
2024/01/16 06:07:18;;;;;;;3.90;2.70;;;;;;;;;;4859667;29;20555;-89
2024/01/16 06:10:23;;;;;;;4.27;2.70;;;;;;;;;;4887174;29;21111;-88
2024/01/16 06:13:30;;;;;;;3.97;2.50;;;;;;;;;;4872544;29;20559;-88
2024/01/16 06:16:34;;;;;;;7.30;3.23;;;;;;;;;;4870207;29;20547;-88
2024/01/16 06:19:38;;;;;;;6.13;3.10;;;;;;;;;;4859801;29;20547;-89
2024/01/16 06:22:43;;;;;;;4.07;2.67;;;;;;;;;;4870330;29;20603;-88
2024/01/16 06:25:47;;;;;;;5.80;3.00;;;;;;;;;;4869766;29;20661;-88
2024/01/16 06:28:50;;;;;;;4.17;2.90;;;;;;;;;;4859231;29;20543;-89
2024/01/16 06:31:55;;;;;;;5.07;3.03;;;;;;;;;;4870188;29;20878;-89
2024/01/16 06:35:01;;;;;;;3.33;2.43;;;;;;;;;;4869813;29;20634;-88
2024/01/16 06:38:05;;;;;;;5.50;3.03;;;;;;;;;;4859272;29;20540;-88
2024/01/16 06:41:11;;;;;;;5.33;2.80;;;;;;;;;;4870029;29;20547;-89
2024/01/16 06:44:17;;;;;;;4.57;2.47;;;;;;;;;;4870146;29;21203;-88
2024/01/16 06:47:21;;;;;;;6.93;3.03;;;;;;;;;;4869427;29;20551;-88
2024/01/16 06:50:25;;;;;;;4.20;2.37;;;;;;;;;;4869240;29;20540;-88
2024/01/16 06:53:30;;;;;;;4.43;2.80;;;;;;;;;;4880476;29;20547;-88
2024/01/16 06:56:34;;;;;;;33.33;13.80;;;;;;;;;;4859148;29;20551;-89
2024/01/16 06:59:38;;;;;;;7.00;4.67;;;;;;;;;;4849704;29;20571;-89
2024/01/16 07:02:44;;;;;;;5.43;2.97;;;;;;;;;;4870013;29;20590;-88
2024/01/16 07:05:49;;;;;;;7.67;4.40;;;;;;;;;;4858854;29;20754;-89
2024/01/16 07:08:53;;;;;;;9.90;5.97;;;;;;;;;;4869877;29;20547;-89
2024/01/16 07:11:58;;;;;;;58.93;31.27;;;;;;;;;;4859741;29;20539;-88
2024/01/16 07:15:04;;;;;;;18.47;12.13;;;;;;;;;;4880843;29;20638;-88
2024/01/16 07:18:08;;;;;;;9.40;6.10;;;;;;;;;;4860254;29;20558;-89
2024/01/16 07:21:21;;;;;;;10.77;6.90;;;;;;;;;;4858585;29;20602;-89
2024/01/16 07:24:25;;;;;;;7.20;5.83;;;;;;;;;;4869310;29;20607;-89
2024/01/16 07:27:32;;;;;;;9.43;4.77;;;;;;;;;;4870692;29;20555;-89
2024/01/16 07:30:36;;;;;;;7.70;5.23;;;;;;;;;;4871032;29;20555;-88
2024/01/16 07:33:41;;;;;;;5.10;3.17;;;;;;;;;;4872509;29;20891;-89
2024/01/16 07:36:54;;;;;;;15.13;9.50;;;;;;;;;;4872631;29;20563;-89
2024/01/16 07:39:58;;;;;;;11.43;6.60;;;;;;;;;;4875182;29;20551;-88
2024/01/16 07:43:35;;;;;;;22.07;13.17;;;;;;;;;;4864543;29;20614;-89
2024/01/16 07:46:41;;;;;;;12.80;8.17;;;;;;;;;;4864983;29;20602;-88
2024/01/16 07:49:47;;;;;;;7.53;4.30;;;;;;;;;;4862908;29;20567;-88
2024/01/16 07:52:54;;;;;;;4.63;3.03;;;;;;;;;;4863407;29;20567;-88
2024/01/16 07:56:02;;;;;;;4.80;2.90;;;;;;;;;;4863070;29;20626;-89
2024/01/16 07:59:06;;;;;;;4.50;3.80;;;;;;;;;;4872895;29;21108;-88
2024/01/16 08:02:12;;;;;;;7.23;4.97;;;;;;;;;;4861557;29;20610;-89
2024/01/16 08:05:16;;;;;;;5.57;3.07;;;;;;;;;;4872464;29;20630;-88
2024/01/16 08:08:20;;;;;;;8.30;4.30;;;;;;;;;;4872687;29;20902;-88
2024/01/16 08:11:24;;;;;;;7.13;3.80;;;;;;;;;;4865876;29;20555;-89
2024/01/16 08:14:29;;;;;;;5.60;3.20;;;;;;;;;;4862139;29;20618;-86
2024/01/16 08:17:39;;;;;;;4.80;3.47;;;;;;;;;;4863449;29;20547;-87
2024/01/16 08:20:44;;;;;;;3.93;2.47;;;;;;;;;;4872271;29;20587;-90
2024/01/16 08:23:48;;;;;;;5.60;3.20;;;;;;;;;;4882738;29;20610;-89
2024/01/16 08:27:20;;;;;;;8.90;2.70;;;;;;;;;;4861800;29;20543;-89
2024/01/16 08:30:25;;;;;;;3.50;2.00;;;;;;;;;;4862229;29;20581;-87
2024/01/16 08:33:29;;;;;;;3.20;2.23;;;;;;;;;;4863166;29;20559;-87
2024/01/16 08:36:33;;;;;;;3.70;2.10;;;;;;;;;;4883684;29;20547;-87
2024/01/16 08:39:38;;;;;;;11.07;3.00;;;;;;;;;;4872562;29;20551;-87
2024/01/16 08:42:42;;;;;;;3.60;2.40;;;;;;;;;;4872668;29;20599;-87
2024/01/16 08:45:47;;;;;;;4.03;2.03;;;;;;;;;;4882711;29;20630;-87
2024/01/16 08:48:51;;;;;;;3.33;2.10;;;;;;;;;;4871674;29;20547;-89
2024/01/16 08:51:56;;;;;;;3.87;2.23;;;;;;;;;;4870065;29;20602;-89
2024/01/16 08:55:00;;;;;;;6.20;2.27;;;;;;;;;;4871744;29;20618;-89
2024/01/16 08:58:04;;;;;;;3.10;1.97;;;;;;;;;;4861761;29;20895;-88
2024/01/16 09:01:10;;;;;;;4.63;2.30;;;;;;;;;;4871992;29;20894;-88
2024/01/16 09:04:16;;;;;;;5.03;2.23;;;;;;;;;;4871948;29;20602;-89
2024/01/16 09:07:21;;;;;;;3.00;2.07;;;;;;;;;;4883219;29;20555;-88
2024/01/16 09:10:30;;;;;;;4.00;2.30;;;;;;;;;;4873120;29;20551;-89
2024/01/16 09:13:34;;;;;;;6.17;3.50;;;;;;;;;;4861769;29;20547;-89
2024/01/16 09:16:42;;;;;;;4.73;2.33;;;;;;;;;;4851052;29;20547;-89
2024/01/16 09:19:46;;;;;;;2.53;2.00;;;;;;;;;;4851165;29;21085;-89
2024/01/16 09:22:50;;;;;;;3.63;2.53;;;;;;;;;;4851063;29;20599;-89
2024/01/16 09:25:54;;;;;;;4.73;2.60;;;;;;;;;;4850623;29;20662;-89
2024/01/16 09:28:58;;;;;;;3.33;2.53;;;;;;;;;;4850039;29;20547;-89
2024/01/16 09:32:03;;;;;;;3.57;3.20;;;;;;;;;;4860193;29;20559;-89
2024/01/16 09:35:08;;;;;;;7.97;5.83;;;;;;;;;;4861138;29;21191;-88
2024/01/16 09:38:14;;;;;;;5.63;5.03;;;;;;;;;;4872875;29;20556;-88
2024/01/16 09:41:21;;;;;;;4.50;3.50;;;;;;;;;;4871473;29;20547;-88
2024/01/16 09:44:41;;;;;;;3.30;2.83;;;;;;;;;;4882287;29;20619;-89
2024/01/16 09:47:49;;;;;;;39.30;4.53;;;;;;;;;;4872777;29;20551;-88
2024/01/16 09:50:53;;;;;;;227.47;13.87;;;;;;;;;;4872671;29;20539;-88
2024/01/16 09:54:06;;;;;;;17.67;3.23;;;;;;;;;;4861164;29;20550;-89
2024/01/16 09:57:14;;;;;;;60.07;6.77;;;;;;;;;;4872761;29;20563;-89
2024/01/16 10:00:19;;;;;;;49.00;5.07;;;;;;;;;;4874489;29;20547;-86
2024/01/16 10:03:25;;;;;;;15.33;3.70;;;;;;;;;;4877767;29;20599;-88
2024/01/16 10:06:33;;;;;;;4.57;3.10;;;;;;;;;;4870671;29;20552;-87
2024/01/16 10:09:38;;;;;;;4.97;2.63;;;;;;;;;;4870597;29;20543;-88
2024/01/16 10:12:43;;;;;;;7.73;3.77;;;;;;;;;;4870136;29;20543;-88
2024/01/16 10:15:52;;;;;;;4.57;3.03;;;;;;;;;;4871119;29;20635;-86
2024/01/16 10:19:04;;;;;;;3.97;2.87;;;;;;;;;;4883595;29;20544;-86
2024/01/16 10:22:08;;;;;;;5.67;3.37;;;;;;;;;;4871624;29;20551;-86
2024/01/16 10:25:21;;;;;;;5.13;2.97;;;;;;;;;;4872651;29;21207;-88
2024/01/16 10:28:25;;;;;;;7.03;3.27;;;;;;;;;;4850218;29;20547;-87
2024/01/16 10:31:30;;;;;;;4.80;3.27;;;;;;;;;;4851187;29;20547;-87
2024/01/16 10:34:34;;;;;;;5.63;2.70;;;;;;;;;;4860931;29;20630;-87
2024/01/16 10:37:43;;;;;;;14.20;7.17;;;;;;;;;;4860481;29;20543;-87
2024/01/16 10:40:47;;;;;;;12.40;5.50;;;;;;;;;;4859710;29;20543;-89
2024/01/16 10:44:07;;;;;;;5.27;4.17;;;;;;;;;;4850069;29;20662;-87
2024/01/16 10:47:15;;;;;;;11.63;7.43;;;;;;;;;;4871582;29;20548;-87
2024/01/16 10:50:20;;;;;;;7.57;3.90;;;;;;;;;;4849535;29;20544;-87
2024/01/16 10:53:25;;;;;;;5.17;2.60;;;;;;;;;;4848824;29;20543;-87
2024/01/16 10:56:30;;;;;;;5.27;2.70;;;;;;;;;;4859757;29;20555;-87
2024/01/16 10:59:56;;;;;;;5.17;2.77;;;;;;;;;;4848533;29;20547;-88
2024/01/16 11:03:22;;;;;;;4.07;2.53;;;;;;;;;;4870077;29;20965;-85
2024/01/16 11:06:28;;;;;;;3.13;2.77;;;;;;;;;;4881398;29;21116;-88
2024/01/16 11:09:34;;;;;;;9.83;2.83;;;;;;;;;;4869801;29;20543;-89
2024/01/16 11:12:39;;;;;;;3.83;2.37;;;;;;;;;;4869047;29;20567;-89
2024/01/16 11:15:47;;;;;;;4.60;2.50;;;;;;;;;;4869515;29;20630;-88
2024/01/16 11:18:51;;;;;;;5.17;2.60;;;;;;;;;;4858924;29;20547;-88
2024/01/16 11:21:56;;;;;;;3.90;2.43;;;;;;;;;;4848115;29;20571;-88
2024/01/16 11:25:09;;;;;;;4.50;3.00;;;;;;;;;;4868878;29;21219;-87
2024/01/16 11:28:15;;;;;;;4.70;2.50;;;;;;;;;;4858479;29;20551;-88
2024/01/16 11:31:31;;;;;;;6.03;2.83;;;;;;;;;;4868793;29;20213;-87
2024/01/16 11:34:43;;;;;;;5.53;2.33;;;;;;;;;;4869227;29;20619;-88
2024/01/16 11:37:48;;;;;;;8.50;2.40;;;;;;;;;;4848437;29;21076;-87
2024/01/16 11:40:57;;;;;;;5.10;2.50;;;;;;;;;;4858500;29;20182;-88
2024/01/16 11:44:02;;;;;;;4.33;2.40;;;;;;;;;;4848367;29;21128;-88
2024/01/16 11:47:07;;;;;;;5.13;2.70;;;;;;;;;;4868779;29;21080;-88
2024/01/16 11:50:26;;;;;;;4.67;2.53;;;;;;;;;;4858390;29;20186;-87
2024/01/16 11:53:31;;;;;;;3.90;2.33;;;;;;;;;;4858206;29;21116;-87
2024/01/16 11:56:50;;;;;;;4.10;2.27;;;;;;;;;;4858553;29;20182;-87
2024/01/16 11:59:59;;;;;;;2.77;2.03;;;;;;;;;;4869424;29;20529;-88
2024/01/16 12:03:06;;;;;;;6.27;2.50;;;;;;;;;;4868864;29;21092;-87
2024/01/16 12:06:10;;;;;;;2.70;2.10;;;;;;;;;;4868863;29;20226;-88
2024/01/16 12:09:17;;;;;;;5.33;2.13;;;;;;;;;;4869133;29;20661;-88
2024/01/16 12:12:21;;;;;;;4.53;2.10;;;;;;;;;;4869427;29;20182;-89
2024/01/16 12:15:25;;;;;;;5.63;3.07;;;;;;;;;;4868530;29;20221;-86
2024/01/16 12:18:30;;;;;;;8.37;2.80;;;;;;;;;;4868896;29;20186;-89
2024/01/16 12:21:42;;;;;;;3.33;2.10;;;;;;;;;;4858818;29;20182;-90
2024/01/16 12:24:47;;;;;;;4.13;2.50;;;;;;;;;;4848782;29;20669;-90
2024/01/16 12:33:02;;;;;;;4.83;2.60;;;;;;;;;;4823717;29;20198;-90
2024/01/16 12:36:12;;;;;;;5.63;2.20;;;;;;;;;;4861260;29;20222;-89
2024/01/16 12:39:54;;;;;;;;;;;;;;;;;;;;;
2024/01/16 12:43:29;;;;;;;4.80;2.60;;;;;;;;;;4883602;29;20210;-91
2024/01/16 12:46:33;;;;;;;3.87;2.50;;;;;;;;;;4889825;29;20182;-89
2024/01/16 12:49:42;;;;;;;4.10;2.37;;;;;;;;;;4877144;29;20194;-89
2024/01/16 12:52:47;;;;;;;5.37;2.30;;;;;;;;;;4866209;29;20182;-90
2024/01/16 12:55:59;;;;;;;8.77;2.20;;;;;;;;;;4865948;29;20255;-89
2024/01/16 12:59:13;;;;;;;3.93;2.20;;;;;;;;;;4866134;29;20545;-89
2024/01/16 13:02:25;;;;;;;4.17;1.90;;;;;;;;;;4875945;29;20183;-89
2024/01/16 13:05:30;;;;;;;4.27;2.30;;;;;;;;;;4864744;29;20658;-89
2024/01/16 13:08:34;;;;;;;2.60;1.80;;;;;;;;;;4875421;29;20547;-89
2024/01/16 13:11:51;;;;;;;5.13;2.37;;;;;;;;;;4878365;29;20209;-89
2024/01/16 13:14:55;;;;;;;7.83;2.10;;;;;;;;;;4883246;29;20226;-89
2024/01/16 13:18:00;;;;;;;4.00;1.77;;;;;;;;;;4880257;29;20187;-89
2024/01/16 13:21:04;;;;;;;4.87;1.77;;;;;;;;;;4875811;29;20921;-89
2024/01/16 13:24:08;;;;;;;7.63;1.83;;;;;;;;;;4865169;29;20603;-89
2024/01/16 13:27:13;;;;;;;10.07;1.90;;;;;;;;;;4865572;29;20583;-89
2024/01/16 13:30:17;;;;;;;6.23;1.80;;;;;;;;;;4855854;29;20551;-89
2024/01/16 13:33:24;;;;;;;6.50;2.13;;;;;;;;;;4878774;29;21127;-89
2024/01/16 13:36:28;;;;;;;5.80;2.47;;;;;;;;;;4857264;29;20568;-89
2024/01/16 13:39:37;;;;;;;7.00;2.87;;;;;;;;;;4868890;29;21096;-90
2024/01/16 13:42:42;;;;;;;5.97;4.00;;;;;;;;;;4857700;29;20547;-90
2024/01/16 13:45:49;;;;;;;5.57;3.70;;;;;;;;;;4878831;29;20662;-90
2024/01/16 13:48:53;;;;;;;7.43;2.87;;;;;;;;;;4859051;29;21092;-90
2024/01/16 13:51:57;;;;;;;2.63;2.00;;;;;;;;;;4859687;29;20546;-89
2024/01/16 13:55:05;;;;;;;8.27;2.60;;;;;;;;;;4869508;29;20668;-89
2024/01/16 13:58:08;;;;;;;5.50;1.80;;;;;;;;;;4868958;29;20551;-89
2024/01/16 14:01:12;;;;;;;4.80;2.20;;;;;;;;;;4868982;29;20563;-89
2024/01/16 14:04:17;;;;;;;3.10;2.00;;;;;;;;;;4879275;29;21078;-90
2024/01/16 14:07:24;;;;;;;7.47;2.20;;;;;;;;;;4868444;29;20567;-91
2024/01/16 14:10:31;;;;;;;5.17;2.20;;;;;;;;;;4868344;29;20547;-89
2024/01/16 14:13:37;;;;;;;6.27;1.90;;;;;;;;;;4878765;29;20563;-88
2024/01/16 14:16:41;;;;;;;5.67;2.13;;;;;;;;;;4857527;29;20563;-89
2024/01/16 14:19:45;;;;;;;5.90;2.00;;;;;;;;;;4878264;29;20555;-90
2024/01/16 14:22:51;;;;;;;3.97;2.07;;;;;;;;;;4867539;29;20567;-89
2024/01/16 14:25:55;;;;;;;3.57;1.73;;;;;;;;;;4867150;29;20670;-89
2024/01/16 14:28:59;;;;;;;4.57;2.00;;;;;;;;;;4857166;29;20547;-89
2024/01/16 14:32:04;;;;;;;4.63;1.97;;;;;;;;;;4856705;29;20555;-89
2024/01/16 14:35:10;;;;;;;4.63;1.87;;;;;;;;;;4856588;29;20622;-90
2024/01/16 14:38:17;;;;;;;2.83;2.00;;;;;;;;;;4867380;29;20547;-90
2024/01/16 14:41:25;;;;;;;4.07;2.27;;;;;;;;;;4866831;29;20547;-90
2024/01/16 14:44:29;;;;;;;7.00;1.97;;;;;;;;;;4855905;29;20666;-84
2024/01/16 14:47:37;;;;;;;6.30;2.10;;;;;;;;;;4888340;29;20567;-86
2024/01/16 14:50:42;;;;;;;3.90;1.80;;;;;;;;;;4877011;29;21085;-85
2024/01/16 14:53:48;;;;;;;3.40;1.77;;;;;;;;;;4877101;29;20551;-86
2024/01/16 14:56:52;;;;;;;3.43;1.80;;;;;;;;;;4876914;29;20543;-86
2024/01/16 14:59:57;;;;;;;3.20;1.63;;;;;;;;;;4866476;29;20543;-86
2024/01/16 15:03:02;;;;;;;5.77;2.10;;;;;;;;;;4866300;29;20552;-86
2024/01/16 15:06:06;;;;;;;7.87;1.77;;;;;;;;;;4875944;29;20654;-86
2024/01/16 15:09:12;;;;;;;81.23;8.13;;;;;;;;;;4855158;29;20547;-86
2024/01/16 15:12:16;;;;;;;486.20;24.80;;;;;;;;;;4888806;29;20547;-86
2024/01/16 15:15:22;;;;;;;86.13;6.93;;;;;;;;;;4876791;29;20626;-86
2024/01/16 15:18:28;;;;;;;148.90;11.37;;;;;;;;;;4855383;29;20555;-88
2024/01/16 15:21:32;;;;;;;57.20;6.00;;;;;;;;;;4877179;29;20956;-88
2024/01/16 15:24:39;;;;;;;52.33;3.87;;;;;;;;;;4867416;29;20674;-89
2024/01/16 15:27:45;;;;;;;24.63;4.40;;;;;;;;;;4865587;29;20551;-89
2024/01/16 15:30:49;;;;;;;6.90;2.30;;;;;;;;;;4876542;29;20571;-89
2024/01/16 15:33:54;;;;;;;5.27;2.23;;;;;;;;;;4875822;29;21108;-89
2024/01/16 15:37:05;;;;;;;5.70;2.47;;;;;;;;;;4854359;29;20540;-89
2024/01/16 15:40:12;;;;;;;6.97;2.20;;;;;;;;;;4864905;29;20906;-89
2024/01/16 15:43:17;;;;;;;6.20;2.50;;;;;;;;;;4864729;29;20551;-88
2024/01/16 15:46:23;;;;;;;6.17;2.93;;;;;;;;;;4863654;29;20643;-88
2024/01/16 15:49:29;;;;;;;4.57;2.37;;;;;;;;;;4864271;29;20586;-89
2024/01/16 15:52:34;;;;;;;5.90;2.60;;;;;;;;;;4874301;29;20567;-89
2024/01/16 15:55:52;;;;;;;5.00;2.43;;;;;;;;;;4873703;29;21207;-90
2024/01/16 15:59:05;;;;;;;7.57;2.67;;;;;;;;;;4853766;29;20543;-87
2024/01/16 16:02:09;;;;;;;19.57;3.10;;;;;;;;;;4876859;29;20559;-88
2024/01/16 16:05:14;;;;;;;474.17;29.67;;;;;;;;;;4864945;29;20658;-88
2024/01/16 16:08:18;;;;;;;455.77;29.47;;;;;;;;;;4856794;29;20574;-87
2024/01/16 16:11:22;;;;;;;244.97;18.27;;;;;;;;;;4877780;29;20566;-88
2024/01/16 16:14:28;;;;;;;220.40;14.70;;;;;;;;;;4856109;29;20650;-88
2024/01/16 16:17:32;;;;;;;8.83;2.90;;;;;;;;;;4877067;29;20570;-88
2024/01/16 16:20:38;;;;;;;6.03;2.77;;;;;;;;;;4865647;29;20547;-88
2024/01/16 16:23:43;;;;;;;5.00;2.67;;;;;;;;;;4854206;29;20559;-88
2024/01/16 16:26:47;;;;;;;5.43;2.87;;;;;;;;;;4864923;29;20547;-89
2024/01/16 16:29:55;;;;;;;5.60;2.50;;;;;;;;;;4865142;29;21096;-88
2024/01/16 16:33:00;;;;;;;5.73;2.50;;;;;;;;;;4875984;29;20547;-88
2024/01/16 16:36:04;;;;;;;7.17;2.70;;;;;;;;;;4875619;29;20962;-89
2024/01/16 16:39:09;;;;;;;6.10;2.47;;;;;;;;;;4875347;29;20550;-88
2024/01/16 16:42:14;;;;;;;4.70;2.40;;;;;;;;;;4874749;29;20543;-88
2024/01/16 16:45:19;;;;;;;3.93;2.50;;;;;;;;;;4853032;29;20662;-89
2024/01/16 16:48:23;;;;;;;4.50;2.50;;;;;;;;;;4865114;29;20550;-89
2024/01/16 16:51:27;;;;;;;5.90;2.30;;;;;;;;;;4855013;29;20563;-88
2024/01/16 16:54:31;;;;;;;4.23;2.50;;;;;;;;;;4863980;29;20626;-89
2024/01/16 16:57:35;;;;;;;5.37;2.87;;;;;;;;;;4874271;29;20543;-88
2024/01/16 17:00:39;;;;;;;4.67;2.37;;;;;;;;;;4873786;29;20571;-88
2024/01/16 17:03:46;;;;;;;6.37;2.50;;;;;;;;;;4853239;29;20552;-88
2024/01/16 17:06:50;;;;;;;3.80;2.77;;;;;;;;;;4884555;29;20615;-88
2024/01/16 17:09:55;;;;;;;7.23;2.87;;;;;;;;;;4873636;29;20547;-88
2024/01/16 17:12:59;;;;;;;4.57;2.43;;;;;;;;;;4863047;29;20548;-88
2024/01/16 17:16:04;;;;;;;6.87;3.63;;;;;;;;;;4873852;29;20626;-88
2024/01/16 17:19:08;;;;;;;6.93;3.40;;;;;;;;;;4862599;29;20547;-88
2024/01/16 17:22:14;;;;;;;6.37;3.60;;;;;;;;;;4862890;29;20571;-88
2024/01/16 17:25:19;;;;;;;6.83;3.60;;;;;;;;;;4873538;29;20670;-88
2024/01/16 17:28:28;;;;;;;4.83;3.10;;;;;;;;;;4874915;29;20745;-88
2024/01/16 17:31:32;;;;;;;9.33;3.17;;;;;;;;;;4874081;29;20552;-87
2024/01/16 17:34:46;;;;;;;5.37;3.50;;;;;;;;;;4875171;29;20627;-88
2024/01/16 17:37:50;;;;;;;7.30;3.20;;;;;;;;;;4874976;29;20567;-88
2024/01/16 17:41:25;;;;;;;5.73;3.90;;;;;;;;;;4874545;29;20548;-88
2024/01/16 17:50:47;;;;;;;8.00;3.10;;;;;;;;;;4885788;29;20552;-89
2024/01/16 17:54:17;;;;;;;7.60;3.33;;;;;;;;;;4885297;29;20527;-89
2024/01/16 17:57:22;;;;;;;8.57;3.43;;;;;;;;;;4862963;29;20548;-89
2024/01/16 18:00:56;;;;;;;5.97;3.30;;;;;;;;;;4873187;29;20567;-89
2024/01/16 18:04:00;;;;;;;4.70;2.73;;;;;;;;;;4852287;29;20539;-89
2024/01/16 18:07:15;;;;;;;5.97;3.13;;;;;;;;;;4863057;29;20614;-89
2024/01/16 18:10:26;;;;;;;4.37;2.90;;;;;;;;;;4884828;29;20547;-89
2024/01/16 18:13:34;;;;;;;48.97;20.77;;;;;;;;;;4862864;29;20567;-89
2024/01/16 18:17:10;;;;;;;165.33;61.87;;;;;;;;;;4853944;29;21103;-89
2024/01/16 18:20:28;;;;;;;124.70;50.00;;;;;;;;;;4872651;29;20543;-89
2024/01/16 18:24:03;;;;;;;103.90;41.50;;;;;;;;;;4872088;29;20555;-88
2024/01/16 18:27:21;;;;;;;13.10;6.20;;;;;;;;;;4872133;29;20973;-88
2024/01/16 18:30:27;;;;;;;21.43;9.27;;;;;;;;;;4883598;29;20543;-88
2024/01/16 18:33:32;;;;;;;21.43;9.43;;;;;;;;;;4861666;29;20890;-88
2024/01/16 18:36:36;;;;;;;12.53;6.87;;;;;;;;;;4871862;29;20568;-88
2024/01/16 18:39:40;;;;;;;9.33;4.97;;;;;;;;;;4872078;29;20544;-87
2024/01/16 18:42:44;;;;;;;16.67;7.57;;;;;;;;;;4883054;29;20551;-88
2024/01/16 18:45:50;;;;;;;26.30;14.93;;;;;;;;;;4871297;29;20662;-88
2024/01/16 18:48:54;;;;;;;27.53;14.53;;;;;;;;;;4872240;29;21126;-88